sensor_id;sensor_type;location;lat;lon;timestamp;P1;durP1;ratioP1;P2;durP2;ratioP2
7213;SDS011;3648;50.614;13.830;2023-04-15T00:02:20;0.67;;;0.60;;
7213;SDS011;3648;50.614;13.830;2023-04-15T00:04:48;1.30;;;0.90;;
7213;SDS011;3648;50.614;13.830;2023-04-15T00:07:16;1.17;;;0.80;;
7213;SDS011;3648;50.614;13.830;2023-04-15T00:09:43;1.00;;;0.80;;
7213;SDS011;3648;50.614;13.830;2023-04-15T00:12:10;1.53;;;1.00;;
7213;SDS011;3648;50.614;13.830;2023-04-15T00:14:37;1.20;;;0.90;;
7213;SDS011;3648;50.614;13.830;2023-04-15T00:17:04;1.40;;;1.30;;
7213;SDS011;3648;50.614;13.830;2023-04-15T00:19:32;1.30;;;1.00;;
7213;SDS011;3648;50.614;13.830;2023-04-15T00:22:00;1.23;;;0.90;;
7213;SDS011;3648;50.614;13.830;2023-04-15T00:24:31;1.37;;;0.80;;
7213;SDS011;3648;50.614;13.830;2023-04-15T00:26:58;1.63;;;0.80;;
7213;SDS011;3648;50.614;13.830;2023-04-15T00:29:25;0.63;;;0.60;;
7213;SDS011;3648;50.614;13.830;2023-04-15T00:31:52;0.67;;;0.50;;
7213;SDS011;3648;50.614;13.830;2023-04-15T00:34:19;0.70;;;0.70;;
7213;SDS011;3648;50.614;13.830;2023-04-15T00:36:46;0.80;;;0.70;;
7213;SDS011;3648;50.614;13.830;2023-04-15T00:39:13;0.70;;;0.50;;
7213;SDS011;3648;50.614;13.830;2023-04-15T00:41:42;0.60;;;0.60;;
7213;SDS011;3648;50.614;13.830;2023-04-15T00:44:10;0.73;;;0.60;;
7213;SDS011;3648;50.614;13.830;2023-04-15T00:46:37;0.63;;;0.63;;
7213;SDS011;3648;50.614;13.830;2023-04-15T00:49:05;0.70;;;0.70;;
7213;SDS011;3648;50.614;13.830;2023-04-15T00:51:33;0.93;;;0.83;;
7213;SDS011;3648;50.614;13.830;2023-04-15T00:54:01;1.23;;;0.90;;
7213;SDS011;3648;50.614;13.830;2023-04-15T00:56:28;1.10;;;1.00;;
7213;SDS011;3648;50.614;13.830;2023-04-15T00:58:57;2.43;;;1.70;;
7213;SDS011;3648;50.614;13.830;2023-04-15T01:01:25;1.30;;;1.20;;
7213;SDS011;3648;50.614;13.830;2023-04-15T01:03:53;2.67;;;1.77;;
7213;SDS011;3648;50.614;13.830;2023-04-15T01:06:22;1.40;;;1.20;;
7213;SDS011;3648;50.614;13.830;2023-04-15T01:08:51;1.10;;;1.00;;
7213;SDS011;3648;50.614;13.830;2023-04-15T01:11:18;1.10;;;0.80;;
7213;SDS011;3648;50.614;13.830;2023-04-15T01:13:45;0.80;;;0.80;;
7213;SDS011;3648;50.614;13.830;2023-04-15T01:16:14;0.80;;;0.70;;
7213;SDS011;3648;50.614;13.830;2023-04-15T01:18:42;0.70;;;0.70;;
7213;SDS011;3648;50.614;13.830;2023-04-15T01:21:09;0.70;;;0.70;;
7213;SDS011;3648;50.614;13.830;2023-04-15T01:23:36;2.47;;;0.80;;
7213;SDS011;3648;50.614;13.830;2023-04-15T01:26:05;0.60;;;0.60;;
7213;SDS011;3648;50.614;13.830;2023-04-15T01:28:33;0.50;;;0.50;;
7213;SDS011;3648;50.614;13.830;2023-04-15T01:31:06;0.80;;;0.67;;
7213;SDS011;3648;50.614;13.830;2023-04-15T01:33:34;0.53;;;0.50;;
7213;SDS011;3648;50.614;13.830;2023-04-15T01:36:02;0.47;;;0.47;;
7213;SDS011;3648;50.614;13.830;2023-04-15T01:38:30;0.70;;;0.50;;
7213;SDS011;3648;50.614;13.830;2023-04-15T01:40:58;0.40;;;0.40;;
7213;SDS011;3648;50.614;13.830;2023-04-15T01:43:26;0.30;;;0.30;;
7213;SDS011;3648;50.614;13.830;2023-04-15T01:45:53;0.30;;;0.30;;
7213;SDS011;3648;50.614;13.830;2023-04-15T01:48:21;0.40;;;0.40;;
7213;SDS011;3648;50.614;13.830;2023-04-15T01:50:48;0.47;;;0.47;;
7213;SDS011;3648;50.614;13.830;2023-04-15T01:53:16;0.50;;;0.50;;
7213;SDS011;3648;50.614;13.830;2023-04-15T01:55:43;0.50;;;0.50;;
7213;SDS011;3648;50.614;13.830;2023-04-15T01:58:10;0.90;;;0.67;;
7213;SDS011;3648;50.614;13.830;2023-04-15T02:00:38;0.80;;;0.70;;
7213;SDS011;3648;50.614;13.830;2023-04-15T02:03:05;0.83;;;0.77;;
7213;SDS011;3648;50.614;13.830;2023-04-15T02:05:32;0.53;;;0.50;;
7213;SDS011;3648;50.614;13.830;2023-04-15T02:07:59;1.07;;;0.80;;
7213;SDS011;3648;50.614;13.830;2023-04-15T02:10:26;0.70;;;0.60;;
7213;SDS011;3648;50.614;13.830;2023-04-15T02:12:53;1.83;;;0.77;;
7213;SDS011;3648;50.614;13.830;2023-04-15T02:15:20;0.77;;;0.77;;
7213;SDS011;3648;50.614;13.830;2023-04-15T02:17:48;0.70;;;0.60;;
7213;SDS011;3648;50.614;13.830;2023-04-15T02:20:17;0.43;;;0.40;;
7213;SDS011;3648;50.614;13.830;2023-04-15T02:22:45;0.63;;;0.60;;
7213;SDS011;3648;50.614;13.830;2023-04-15T02:25:12;0.63;;;0.63;;
7213;SDS011;3648;50.614;13.830;2023-04-15T02:27:40;0.70;;;0.60;;
7213;SDS011;3648;50.614;13.830;2023-04-15T02:30:08;1.00;;;0.90;;
7213;SDS011;3648;50.614;13.830;2023-04-15T02:32:35;0.80;;;0.80;;
7213;SDS011;3648;50.614;13.830;2023-04-15T02:35:04;0.93;;;0.83;;
7213;SDS011;3648;50.614;13.830;2023-04-15T02:37:34;1.00;;;0.87;;
7213;SDS011;3648;50.614;13.830;2023-04-15T02:40:06;1.00;;;0.90;;
7213;SDS011;3648;50.614;13.830;2023-04-15T02:42:35;1.53;;;1.20;;
7213;SDS011;3648;50.614;13.830;2023-04-15T02:45:03;0.70;;;0.70;;
7213;SDS011;3648;50.614;13.830;2023-04-15T02:47:31;1.07;;;0.73;;
7213;SDS011;3648;50.614;13.830;2023-04-15T02:49:58;0.60;;;0.60;;
7213;SDS011;3648;50.614;13.830;2023-04-15T02:52:27;0.43;;;0.43;;
7213;SDS011;3648;50.614;13.830;2023-04-15T02:54:54;0.60;;;0.60;;
7213;SDS011;3648;50.614;13.830;2023-04-15T02:57:25;0.50;;;0.50;;
7213;SDS011;3648;50.614;13.830;2023-04-15T02:59:53;0.50;;;0.40;;
7213;SDS011;3648;50.614;13.830;2023-04-15T03:02:20;0.77;;;0.60;;
7213;SDS011;3648;50.614;13.830;2023-04-15T03:04:47;0.60;;;0.60;;
7213;SDS011;3648;50.614;13.830;2023-04-15T03:07:16;0.50;;;0.50;;
7213;SDS011;3648;50.614;13.830;2023-04-15T03:09:45;0.40;;;0.40;;
7213;SDS011;3648;50.614;13.830;2023-04-15T03:12:12;0.53;;;0.50;;
7213;SDS011;3648;50.614;13.830;2023-04-15T03:14:39;0.60;;;0.40;;
7213;SDS011;3648;50.614;13.830;2023-04-15T03:17:05;0.53;;;0.53;;
7213;SDS011;3648;50.614;13.830;2023-04-15T03:19:33;0.70;;;0.70;;
7213;SDS011;3648;50.614;13.830;2023-04-15T03:22:00;0.70;;;0.70;;
7213;SDS011;3648;50.614;13.830;2023-04-15T03:24:27;0.77;;;0.53;;
7213;SDS011;3648;50.614;13.830;2023-04-15T03:26:55;0.90;;;0.70;;
7213;SDS011;3648;50.614;13.830;2023-04-15T03:29:22;1.23;;;0.90;;
7213;SDS011;3648;50.614;13.830;2023-04-15T03:34:19;1.43;;;0.70;;
7213;SDS011;3648;50.614;13.830;2023-04-15T03:36:46;1.70;;;0.90;;
7213;SDS011;3648;50.614;13.830;2023-04-15T03:39:13;0.60;;;0.60;;
7213;SDS011;3648;50.614;13.830;2023-04-15T03:41:40;0.57;;;0.50;;
7213;SDS011;3648;50.614;13.830;2023-04-15T03:44:09;0.83;;;0.60;;
7213;SDS011;3648;50.614;13.830;2023-04-15T03:46:35;1.03;;;0.70;;
7213;SDS011;3648;50.614;13.830;2023-04-15T03:49:04;0.60;;;0.60;;
7213;SDS011;3648;50.614;13.830;2023-04-15T03:51:31;1.00;;;0.60;;
7213;SDS011;3648;50.614;13.830;2023-04-15T03:53:58;0.70;;;0.70;;
7213;SDS011;3648;50.614;13.830;2023-04-15T03:56:26;1.07;;;0.90;;
7213;SDS011;3648;50.614;13.830;2023-04-15T03:58:53;3.33;;;2.17;;
7213;SDS011;3648;50.614;13.830;2023-04-15T04:01:21;58.70;;;8.40;;
7213;SDS011;3648;50.614;13.830;2023-04-15T04:03:48;9.00;;;3.10;;
7213;SDS011;3648;50.614;13.830;2023-04-15T04:06:15;2.30;;;1.80;;
7213;SDS011;3648;50.614;13.830;2023-04-15T04:08:42;1.33;;;1.17;;
7213;SDS011;3648;50.614;13.830;2023-04-15T04:11:09;1.30;;;1.20;;
7213;SDS011;3648;50.614;13.830;2023-04-15T04:13:36;1.33;;;1.13;;
7213;SDS011;3648;50.614;13.830;2023-04-15T04:16:03;1.57;;;0.90;;
7213;SDS011;3648;50.614;13.830;2023-04-15T04:18:32;1.17;;;1.07;;
7213;SDS011;3648;50.614;13.830;2023-04-15T04:20:59;1.17;;;1.00;;
7213;SDS011;3648;50.614;13.830;2023-04-15T04:23:26;1.17;;;0.93;;
7213;SDS011;3648;50.614;13.830;2023-04-15T04:25:53;1.00;;;0.90;;
7213;SDS011;3648;50.614;13.830;2023-04-15T04:28:20;1.10;;;1.00;;
7213;SDS011;3648;50.614;13.830;2023-04-15T04:30:47;1.27;;;1.00;;
7213;SDS011;3648;50.614;13.830;2023-04-15T04:33:14;1.23;;;1.10;;
7213;SDS011;3648;50.614;13.830;2023-04-15T04:35:43;1.57;;;0.80;;
7213;SDS011;3648;50.614;13.830;2023-04-15T04:38:10;0.73;;;0.60;;
7213;SDS011;3648;50.614;13.830;2023-04-15T04:40:37;0.90;;;0.70;;
7213;SDS011;3648;50.614;13.830;2023-04-15T04:43:04;1.13;;;1.00;;
7213;SDS011;3648;50.614;13.830;2023-04-15T04:45:31;1.00;;;0.73;;
7213;SDS011;3648;50.614;13.830;2023-04-15T04:47:58;1.03;;;0.80;;
7213;SDS011;3648;50.614;13.830;2023-04-15T04:50:25;1.57;;;1.03;;
7213;SDS011;3648;50.614;13.830;2023-04-15T04:52:53;0.83;;;0.70;;
7213;SDS011;3648;50.614;13.830;2023-04-15T04:55:20;0.60;;;0.60;;
7213;SDS011;3648;50.614;13.830;2023-04-15T04:57:47;0.80;;;0.80;;
7213;SDS011;3648;50.614;13.830;2023-04-15T05:00:14;0.80;;;0.70;;
7213;SDS011;3648;50.614;13.830;2023-04-15T05:02:42;1.07;;;0.73;;
7213;SDS011;3648;50.614;13.830;2023-04-15T05:05:09;0.73;;;0.70;;
7213;SDS011;3648;50.614;13.830;2023-04-15T05:07:37;1.17;;;0.80;;
7213;SDS011;3648;50.614;13.830;2023-04-15T05:10:08;0.90;;;0.80;;
7213;SDS011;3648;50.614;13.830;2023-04-15T05:12:35;1.07;;;0.83;;
7213;SDS011;3648;50.614;13.830;2023-04-15T05:15:03;1.30;;;0.93;;
7213;SDS011;3648;50.614;13.830;2023-04-15T05:17:30;0.70;;;0.70;;
7213;SDS011;3648;50.614;13.830;2023-04-15T05:19:59;0.70;;;0.70;;
7213;SDS011;3648;50.614;13.830;2023-04-15T05:22:27;0.70;;;0.70;;
7213;SDS011;3648;50.614;13.830;2023-04-15T05:24:54;0.97;;;0.90;;
7213;SDS011;3648;50.614;13.830;2023-04-15T05:27:22;0.70;;;0.70;;
7213;SDS011;3648;50.614;13.830;2023-04-15T05:29:49;0.80;;;0.77;;
7213;SDS011;3648;50.614;13.830;2023-04-15T05:32:16;1.07;;;0.80;;
7213;SDS011;3648;50.614;13.830;2023-04-15T05:34:43;1.00;;;0.80;;
7213;SDS011;3648;50.614;13.830;2023-04-15T05:37:11;1.73;;;0.80;;
7213;SDS011;3648;50.614;13.830;2023-04-15T05:39:38;0.70;;;0.70;;
7213;SDS011;3648;50.614;13.830;2023-04-15T05:42:05;1.03;;;0.70;;
7213;SDS011;3648;50.614;13.830;2023-04-15T05:44:33;1.47;;;1.00;;
7213;SDS011;3648;50.614;13.830;2023-04-15T05:47:00;1.57;;;0.60;;
7213;SDS011;3648;50.614;13.830;2023-04-15T05:49:29;1.40;;;1.00;;
7213;SDS011;3648;50.614;13.830;2023-04-15T05:51:56;0.80;;;0.80;;
7213;SDS011;3648;50.614;13.830;2023-04-15T05:54:23;0.73;;;0.73;;
7213;SDS011;3648;50.614;13.830;2023-04-15T05:56:51;1.60;;;1.00;;
7213;SDS011;3648;50.614;13.830;2023-04-15T05:59:19;1.20;;;1.07;;
7213;SDS011;3648;50.614;13.830;2023-04-15T06:01:47;1.87;;;1.10;;
7213;SDS011;3648;50.614;13.830;2023-04-15T06:04:16;1.10;;;0.90;;
7213;SDS011;3648;50.614;13.830;2023-04-15T06:06:43;1.37;;;1.03;;
7213;SDS011;3648;50.614;13.830;2023-04-15T06:09:10;1.23;;;1.10;;
7213;SDS011;3648;50.614;13.830;2023-04-15T06:11:37;1.23;;;0.90;;
7213;SDS011;3648;50.614;13.830;2023-04-15T06:14:05;0.80;;;0.77;;
7213;SDS011;3648;50.614;13.830;2023-04-15T06:16:32;0.90;;;0.90;;
7213;SDS011;3648;50.614;13.830;2023-04-15T06:19:01;1.43;;;0.93;;
7213;SDS011;3648;50.614;13.830;2023-04-15T06:21:29;2.77;;;2.57;;
7213;SDS011;3648;50.614;13.830;2023-04-15T06:23:58;4.00;;;3.63;;
7213;SDS011;3648;50.614;13.830;2023-04-15T06:26:28;3.83;;;3.53;;
7213;SDS011;3648;50.614;13.830;2023-04-15T06:28:55;4.40;;;4.00;;
7213;SDS011;3648;50.614;13.830;2023-04-15T06:31:23;3.40;;;3.13;;
7213;SDS011;3648;50.614;13.830;2023-04-15T06:33:50;3.43;;;3.13;;
7213;SDS011;3648;50.614;13.830;2023-04-15T06:36:18;3.63;;;3.33;;
7213;SDS011;3648;50.614;13.830;2023-04-15T06:38:46;3.47;;;3.17;;
7213;SDS011;3648;50.614;13.830;2023-04-15T06:41:13;3.57;;;3.27;;
7213;SDS011;3648;50.614;13.830;2023-04-15T06:43:40;3.50;;;3.20;;
7213;SDS011;3648;50.614;13.830;2023-04-15T06:46:07;3.33;;;3.03;;
7213;SDS011;3648;50.614;13.830;2023-04-15T06:48:34;3.03;;;2.83;;
7213;SDS011;3648;50.614;13.830;2023-04-15T06:51:01;3.33;;;3.03;;
7213;SDS011;3648;50.614;13.830;2023-04-15T06:53:30;3.60;;;3.10;;
7213;SDS011;3648;50.614;13.830;2023-04-15T06:55:57;3.40;;;3.10;;
7213;SDS011;3648;50.614;13.830;2023-04-15T06:58:24;3.93;;;3.63;;
7213;SDS011;3648;50.614;13.830;2023-04-15T07:00:51;3.50;;;3.20;;
7213;SDS011;3648;50.614;13.830;2023-04-15T07:03:18;3.50;;;3.20;;
7213;SDS011;3648;50.614;13.830;2023-04-15T07:05:45;4.00;;;3.70;;
7213;SDS011;3648;50.614;13.830;2023-04-15T07:08:13;4.70;;;4.23;;
7213;SDS011;3648;50.614;13.830;2023-04-15T07:10:41;4.07;;;3.23;;
7213;SDS011;3648;50.614;13.830;2023-04-15T07:13:08;4.33;;;3.93;;
7213;SDS011;3648;50.614;13.830;2023-04-15T07:15:35;4.53;;;4.13;;
7213;SDS011;3648;50.614;13.830;2023-04-15T07:18:02;4.43;;;4.03;;
7213;SDS011;3648;50.614;13.830;2023-04-15T07:20:30;4.57;;;4.17;;
7213;SDS011;3648;50.614;13.830;2023-04-15T07:22:57;5.20;;;4.70;;
7213;SDS011;3648;50.614;13.830;2023-04-15T07:25:24;4.67;;;4.27;;
7213;SDS011;3648;50.614;13.830;2023-04-15T07:27:52;4.63;;;4.23;;
7213;SDS011;3648;50.614;13.830;2023-04-15T07:30:20;5.17;;;4.67;;
7213;SDS011;3648;50.614;13.830;2023-04-15T07:32:47;5.27;;;4.87;;
7213;SDS011;3648;50.614;13.830;2023-04-15T07:35:14;4.90;;;4.50;;
7213;SDS011;3648;50.614;13.830;2023-04-15T07:37:41;4.50;;;4.10;;
7213;SDS011;3648;50.614;13.830;2023-04-15T07:40:08;5.00;;;4.60;;
7213;SDS011;3648;50.614;13.830;2023-04-15T07:42:36;4.30;;;3.90;;
7213;SDS011;3648;50.614;13.830;2023-04-15T07:45:05;4.60;;;4.20;;
7213;SDS011;3648;50.614;13.830;2023-04-15T07:47:33;4.87;;;4.47;;
7213;SDS011;3648;50.614;13.830;2023-04-15T07:50:00;4.57;;;4.17;;
7213;SDS011;3648;50.614;13.830;2023-04-15T07:52:27;5.00;;;4.50;;
7213;SDS011;3648;50.614;13.830;2023-04-15T07:54:54;4.53;;;4.13;;
7213;SDS011;3648;50.614;13.830;2023-04-15T07:57:21;5.13;;;4.63;;
7213;SDS011;3648;50.614;13.830;2023-04-15T07:59:48;3.83;;;3.53;;
7213;SDS011;3648;50.614;13.830;2023-04-15T08:02:16;3.90;;;3.50;;
7213;SDS011;3648;50.614;13.830;2023-04-15T08:04:43;3.40;;;3.10;;
7213;SDS011;3648;50.614;13.830;2023-04-15T08:07:10;3.10;;;2.87;;
7213;SDS011;3648;50.614;13.830;2023-04-15T08:09:37;3.73;;;3.43;;
7213;SDS011;3648;50.614;13.830;2023-04-15T08:12:04;3.30;;;3.00;;
7213;SDS011;3648;50.614;13.830;2023-04-15T08:14:33;3.10;;;2.80;;
7213;SDS011;3648;50.614;13.830;2023-04-15T08:17:00;3.10;;;2.90;;
7213;SDS011;3648;50.614;13.830;2023-04-15T08:19:29;3.17;;;2.87;;
7213;SDS011;3648;50.614;13.830;2023-04-15T08:21:56;3.07;;;2.87;;
7213;SDS011;3648;50.614;13.830;2023-04-15T08:24:23;3.30;;;3.00;;
7213;SDS011;3648;50.614;13.830;2023-04-15T08:26:51;3.30;;;2.80;;
7213;SDS011;3648;50.614;13.830;2023-04-15T08:29:18;2.80;;;2.60;;
7213;SDS011;3648;50.614;13.830;2023-04-15T08:31:45;3.53;;;2.60;;
7213;SDS011;3648;50.614;13.830;2023-04-15T08:34:12;3.37;;;2.80;;
7213;SDS011;3648;50.614;13.830;2023-04-15T08:36:41;2.77;;;2.57;;
7213;SDS011;3648;50.614;13.830;2023-04-15T08:39:08;2.57;;;2.37;;
7213;SDS011;3648;50.614;13.830;2023-04-15T08:41:40;3.33;;;2.87;;
7213;SDS011;3648;50.614;13.830;2023-04-15T08:44:12;2.50;;;2.30;;
7213;SDS011;3648;50.614;13.830;2023-04-15T08:46:40;3.27;;;3.07;;
7213;SDS011;3648;50.614;13.830;2023-04-15T08:49:09;2.40;;;2.20;;
7213;SDS011;3648;50.614;13.830;2023-04-15T08:51:37;2.60;;;2.40;;
7213;SDS011;3648;50.614;13.830;2023-04-15T08:54:07;2.40;;;2.20;;
7213;SDS011;3648;50.614;13.830;2023-04-15T08:56:35;2.20;;;2.00;;
7213;SDS011;3648;50.614;13.830;2023-04-15T08:59:04;2.27;;;2.10;;
7213;SDS011;3648;50.614;13.830;2023-04-15T09:01:32;2.10;;;2.00;;
7213;SDS011;3648;50.614;13.830;2023-04-15T09:04:00;2.50;;;2.30;;
7213;SDS011;3648;50.614;13.830;2023-04-15T09:06:30;2.47;;;2.27;;
7213;SDS011;3648;50.614;13.830;2023-04-15T09:08:57;2.40;;;2.20;;
7213;SDS011;3648;50.614;13.830;2023-04-15T09:11:26;2.20;;;2.00;;
7213;SDS011;3648;50.614;13.830;2023-04-15T09:13:55;2.73;;;2.40;;
7213;SDS011;3648;50.614;13.830;2023-04-15T09:16:22;3.50;;;3.20;;
7213;SDS011;3648;50.614;13.830;2023-04-15T09:18:49;3.30;;;3.10;;
7213;SDS011;3648;50.614;13.830;2023-04-15T09:21:16;3.50;;;3.20;;
7213;SDS011;3648;50.614;13.830;2023-04-15T09:23:53;3.00;;;2.80;;
7213;SDS011;3648;50.614;13.830;2023-04-15T09:26:30;2.90;;;2.70;;
7213;SDS011;3648;50.614;13.830;2023-04-15T09:29:04;2.87;;;2.67;;
7213;SDS011;3648;50.614;13.830;2023-04-15T09:31:33;2.80;;;2.60;;
7213;SDS011;3648;50.614;13.830;2023-04-15T09:34:00;2.50;;;2.30;;
7213;SDS011;3648;50.614;13.830;2023-04-15T09:36:28;2.23;;;2.07;;
7213;SDS011;3648;50.614;13.830;2023-04-15T09:38:55;2.40;;;2.20;;
7213;SDS011;3648;50.614;13.830;2023-04-15T09:41:23;3.30;;;3.10;;
7213;SDS011;3648;50.614;13.830;2023-04-15T09:43:52;3.30;;;3.00;;
7213;SDS011;3648;50.614;13.830;2023-04-15T09:46:19;2.20;;;2.10;;
7213;SDS011;3648;50.614;13.830;2023-04-15T09:49:08;2.20;;;2.00;;
7213;SDS011;3648;50.614;13.830;2023-04-15T09:51:37;2.10;;;1.90;;
7213;SDS011;3648;50.614;13.830;2023-04-15T09:54:04;1.93;;;1.60;;
7213;SDS011;3648;50.614;13.830;2023-04-15T09:56:33;2.70;;;1.80;;
7213;SDS011;3648;50.614;13.830;2023-04-15T09:59:03;1.90;;;1.80;;
7213;SDS011;3648;50.614;13.830;2023-04-15T10:01:31;1.80;;;1.70;;
7213;SDS011;3648;50.614;13.830;2023-04-15T10:03:58;2.47;;;2.27;;
7213;SDS011;3648;50.614;13.830;2023-04-15T10:06:28;2.00;;;1.90;;
7213;SDS011;3648;50.614;13.830;2023-04-15T10:08:56;2.00;;;1.90;;
7213;SDS011;3648;50.614;13.830;2023-04-15T10:11:25;2.50;;;2.23;;
7213;SDS011;3648;50.614;13.830;2023-04-15T10:13:54;1.70;;;1.60;;
7213;SDS011;3648;50.614;13.830;2023-04-15T10:16:25;1.67;;;1.57;;
7213;SDS011;3648;50.614;13.830;2023-04-15T10:18:54;1.87;;;1.77;;
7213;SDS011;3648;50.614;13.830;2023-04-15T10:21:22;1.80;;;1.70;;
7213;SDS011;3648;50.614;13.830;2023-04-15T10:23:49;2.07;;;1.87;;
7213;SDS011;3648;50.614;13.830;2023-04-15T10:26:17;1.70;;;1.60;;
7213;SDS011;3648;50.614;13.830;2023-04-15T10:28:44;1.60;;;1.50;;
7213;SDS011;3648;50.614;13.830;2023-04-15T10:31:12;1.50;;;1.40;;
7213;SDS011;3648;50.614;13.830;2023-04-15T10:33:41;1.77;;;1.67;;
7213;SDS011;3648;50.614;13.830;2023-04-15T10:36:09;1.90;;;1.80;;
7213;SDS011;3648;50.614;13.830;2023-04-15T10:38:38;2.70;;;1.67;;
7213;SDS011;3648;50.614;13.830;2023-04-15T10:41:14;2.10;;;2.00;;
7213;SDS011;3648;50.614;13.830;2023-04-15T10:43:49;2.10;;;1.90;;
7213;SDS011;3648;50.614;13.830;2023-04-15T10:46:18;2.17;;;2.03;;
7213;SDS011;3648;50.614;13.830;2023-04-15T10:48:49;2.13;;;2.03;;
7213;SDS011;3648;50.614;13.830;2023-04-15T10:51:25;1.80;;;1.70;;
7213;SDS011;3648;50.614;13.830;2023-04-15T10:53:55;1.70;;;1.60;;
7213;SDS011;3648;50.614;13.830;2023-04-15T10:56:23;2.10;;;2.00;;
7213;SDS011;3648;50.614;13.830;2023-04-15T10:58:50;2.10;;;1.90;;
7213;SDS011;3648;50.614;13.830;2023-04-15T11:01:18;1.90;;;1.80;;
7213;SDS011;3648;50.614;13.830;2023-04-15T11:03:48;1.80;;;1.70;;
7213;SDS011;3648;50.614;13.830;2023-04-15T11:06:16;1.80;;;1.70;;
7213;SDS011;3648;50.614;13.830;2023-04-15T11:08:52;1.90;;;1.70;;
7213;SDS011;3648;50.614;13.830;2023-04-15T11:11:21;1.97;;;1.80;;
7213;SDS011;3648;50.614;13.830;2023-04-15T11:13:49;2.43;;;1.80;;
7213;SDS011;3648;50.614;13.830;2023-04-15T11:16:17;2.67;;;2.20;;
7213;SDS011;3648;50.614;13.830;2023-04-15T11:18:53;2.07;;;1.87;;
7213;SDS011;3648;50.614;13.830;2023-04-15T11:21:23;2.30;;;2.10;;
7213;SDS011;3648;50.614;13.830;2023-04-15T11:23:53;2.03;;;1.93;;
7213;SDS011;3648;50.614;13.830;2023-04-15T11:26:24;2.23;;;1.80;;
7213;SDS011;3648;50.614;13.830;2023-04-15T11:28:52;2.10;;;1.90;;
7213;SDS011;3648;50.614;13.830;2023-04-15T11:31:20;2.03;;;1.93;;
7213;SDS011;3648;50.614;13.830;2023-04-15T11:33:54;2.10;;;2.00;;
7213;SDS011;3648;50.614;13.830;2023-04-15T11:36:23;2.63;;;2.07;;
7213;SDS011;3648;50.614;13.830;2023-04-15T11:38:52;2.60;;;2.40;;
7213;SDS011;3648;50.614;13.830;2023-04-15T11:41:20;2.63;;;2.43;;
7213;SDS011;3648;50.614;13.830;2023-04-15T11:43:48;2.70;;;2.50;;
7213;SDS011;3648;50.614;13.830;2023-04-15T11:46:16;2.37;;;2.23;;
7213;SDS011;3648;50.614;13.830;2023-04-15T11:48:44;2.30;;;2.10;;
7213;SDS011;3648;50.614;13.830;2023-04-15T11:51:14;2.00;;;1.90;;
7213;SDS011;3648;50.614;13.830;2023-04-15T11:53:42;2.60;;;2.40;;
7213;SDS011;3648;50.614;13.830;2023-04-15T11:56:10;2.60;;;2.40;;
7213;SDS011;3648;50.614;13.830;2023-04-15T11:58:43;1.93;;;1.83;;
7213;SDS011;3648;50.614;13.830;2023-04-15T12:01:11;2.07;;;1.97;;
7213;SDS011;3648;50.614;13.830;2023-04-15T12:03:39;2.00;;;1.90;;
7213;SDS011;3648;50.614;13.830;2023-04-15T12:06:12;2.07;;;1.97;;
7213;SDS011;3648;50.614;13.830;2023-04-15T12:08:47;2.20;;;2.00;;
7213;SDS011;3648;50.614;13.830;2023-04-15T12:11:28;2.20;;;2.10;;
7213;SDS011;3648;50.614;13.830;2023-04-15T12:13:58;2.83;;;2.63;;
7213;SDS011;3648;50.614;13.830;2023-04-15T12:16:30;2.33;;;2.13;;
7213;SDS011;3648;50.614;13.830;2023-04-15T12:18:58;2.77;;;2.57;;
7213;SDS011;3648;50.614;13.830;2023-04-15T12:21:32;2.53;;;2.33;;
7213;SDS011;3648;50.614;13.830;2023-04-15T12:24:01;2.60;;;2.40;;
7213;SDS011;3648;50.614;13.830;2023-04-15T12:26:30;2.60;;;2.40;;
7213;SDS011;3648;50.614;13.830;2023-04-15T12:29:01;2.63;;;2.43;;
7213;SDS011;3648;50.614;13.830;2023-04-15T12:31:29;2.50;;;2.30;;
7213;SDS011;3648;50.614;13.830;2023-04-15T12:33:57;2.40;;;2.20;;
7213;SDS011;3648;50.614;13.830;2023-04-15T12:36:25;2.43;;;2.23;;
7213;SDS011;3648;50.614;13.830;2023-04-15T12:38:57;2.37;;;2.23;;
7213;SDS011;3648;50.614;13.830;2023-04-15T12:41:24;2.60;;;2.40;;
7213;SDS011;3648;50.614;13.830;2023-04-15T12:43:51;2.10;;;2.00;;
7213;SDS011;3648;50.614;13.830;2023-04-15T12:46:19;2.20;;;2.10;;
7213;SDS011;3648;50.614;13.830;2023-04-15T12:48:46;2.10;;;2.00;;
7213;SDS011;3648;50.614;13.830;2023-04-15T12:51:14;2.53;;;2.33;;
7213;SDS011;3648;50.614;13.830;2023-04-15T12:53:43;2.40;;;2.23;;
7213;SDS011;3648;50.614;13.830;2023-04-15T12:56:11;3.03;;;2.83;;
7213;SDS011;3648;50.614;13.830;2023-04-15T12:58:39;3.10;;;2.90;;
7213;SDS011;3648;50.614;13.830;2023-04-15T13:01:06;2.97;;;2.77;;
7213;SDS011;3648;50.614;13.830;2023-04-15T13:03:34;3.00;;;2.80;;
7213;SDS011;3648;50.614;13.830;2023-04-15T13:06:01;2.90;;;2.70;;
7213;SDS011;3648;50.614;13.830;2023-04-15T13:08:30;3.23;;;3.03;;
7213;SDS011;3648;50.614;13.830;2023-04-15T13:10:59;3.40;;;3.20;;
7213;SDS011;3648;50.614;13.830;2023-04-15T13:13:26;3.50;;;3.30;;
7213;SDS011;3648;50.614;13.830;2023-04-15T13:15:56;3.53;;;3.23;;
7213;SDS011;3648;50.614;13.830;2023-04-15T13:18:23;2.93;;;2.73;;
7213;SDS011;3648;50.614;13.830;2023-04-15T13:20:50;3.17;;;2.97;;
7213;SDS011;3648;50.614;13.830;2023-04-15T13:23:17;3.57;;;3.37;;
7213;SDS011;3648;50.614;13.830;2023-04-15T13:25:44;2.90;;;2.70;;
7213;SDS011;3648;50.614;13.830;2023-04-15T13:28:13;3.23;;;2.93;;
7213;SDS011;3648;50.614;13.830;2023-04-15T13:30:41;3.07;;;2.87;;
7213;SDS011;3648;50.614;13.830;2023-04-15T13:33:08;3.10;;;2.90;;
7213;SDS011;3648;50.614;13.830;2023-04-15T13:35:36;2.87;;;2.67;;
7213;SDS011;3648;50.614;13.830;2023-04-15T13:38:03;3.00;;;2.80;;
7213;SDS011;3648;50.614;13.830;2023-04-15T13:40:31;2.90;;;2.70;;
7213;SDS011;3648;50.614;13.830;2023-04-15T13:42:59;2.70;;;2.50;;
7213;SDS011;3648;50.614;13.830;2023-04-15T13:45:29;2.87;;;2.67;;
7213;SDS011;3648;50.614;13.830;2023-04-15T13:47:56;3.03;;;2.83;;
7213;SDS011;3648;50.614;13.830;2023-04-15T13:50:24;3.10;;;2.90;;
7213;SDS011;3648;50.614;13.830;2023-04-15T13:52:51;2.80;;;2.60;;
7213;SDS011;3648;50.614;13.830;2023-04-15T13:55:19;3.20;;;3.00;;
7213;SDS011;3648;50.614;13.830;2023-04-15T13:57:46;2.70;;;2.50;;
7213;SDS011;3648;50.614;13.830;2023-04-15T14:00:14;2.90;;;2.70;;
7213;SDS011;3648;50.614;13.830;2023-04-15T14:02:43;2.40;;;2.20;;
7213;SDS011;3648;50.614;13.830;2023-04-15T14:05:10;2.47;;;2.27;;
7213;SDS011;3648;50.614;13.830;2023-04-15T14:07:37;2.23;;;2.03;;
7213;SDS011;3648;50.614;13.830;2023-04-15T14:10:05;2.30;;;2.20;;
7213;SDS011;3648;50.614;13.830;2023-04-15T14:12:33;2.50;;;2.33;;
7213;SDS011;3648;50.614;13.830;2023-04-15T14:15:00;2.90;;;2.70;;
7213;SDS011;3648;50.614;13.830;2023-04-15T14:17:27;2.97;;;2.67;;
7213;SDS011;3648;50.614;13.830;2023-04-15T14:19:56;2.80;;;2.60;;
7213;SDS011;3648;50.614;13.830;2023-04-15T14:22:23;2.07;;;1.97;;
7213;SDS011;3648;50.614;13.830;2023-04-15T14:24:50;3.50;;;3.20;;
7213;SDS011;3648;50.614;13.830;2023-04-15T14:27:19;3.17;;;2.97;;
7213;SDS011;3648;50.614;13.830;2023-04-15T14:29:47;2.93;;;2.73;;
7213;SDS011;3648;50.614;13.830;2023-04-15T14:32:14;2.60;;;2.40;;
7213;SDS011;3648;50.614;13.830;2023-04-15T14:34:41;2.60;;;2.40;;
7213;SDS011;3648;50.614;13.830;2023-04-15T14:37:10;2.60;;;2.40;;
7213;SDS011;3648;50.614;13.830;2023-04-15T14:39:37;2.67;;;2.47;;
7213;SDS011;3648;50.614;13.830;2023-04-15T14:42:05;2.53;;;2.33;;
7213;SDS011;3648;50.614;13.830;2023-04-15T14:44:32;2.77;;;2.57;;
7213;SDS011;3648;50.614;13.830;2023-04-15T14:46:59;2.53;;;2.33;;
7213;SDS011;3648;50.614;13.830;2023-04-15T14:49:26;2.33;;;2.20;;
7213;SDS011;3648;50.614;13.830;2023-04-15T14:51:53;2.90;;;2.70;;
7213;SDS011;3648;50.614;13.830;2023-04-15T14:54:21;2.43;;;2.23;;
7213;SDS011;3648;50.614;13.830;2023-04-15T14:56:48;6.03;;;4.10;;
7213;SDS011;3648;50.614;13.830;2023-04-15T14:59:15;6.33;;;3.93;;
7213;SDS011;3648;50.614;13.830;2023-04-15T15:01:43;2.90;;;2.70;;
7213;SDS011;3648;50.614;13.830;2023-04-15T15:04:10;2.87;;;2.57;;
7213;SDS011;3648;50.614;13.830;2023-04-15T15:06:38;3.37;;;3.07;;
7213;SDS011;3648;50.614;13.830;2023-04-15T15:09:05;2.83;;;2.63;;